Time;durP1;ratioP1;P1;durP2;ratioP2;P2;SDS_P1;SDS_P2;PMS_P1;PMS_P2;Temp;Humidity;BMP_temperature;BMP_pressure;BME280_temperature;BME280_humidity;BME280_pressure;Samples;Min_cycle;Max_cycle;Signal;HPM_P1;HPM_P2
2022/07/04 00:01:12;;;;;;;3.20;2.38;;;;;;;21.90;50.00;100878.88;5075476;28;20107;-25
2022/07/04 00:03:37;;;;;;;2.67;2.47;;;;;;;21.86;50.14;100884.50;5075835;28;20115;-24
2022/07/04 00:06:03;;;;;;;3.65;2.60;;;;;;;21.79;50.34;100876.78;5072292;28;20103;-24
2022/07/04 00:08:28;;;;;;;2.65;2.55;;;;;;;21.75;49.62;100879.72;5078174;28;20034;-24
2022/07/04 00:10:53;;;;;;;2.90;2.70;;;;;;;21.72;50.50;100883.41;5085123;28;20055;-24
2022/07/04 00:13:19;;;;;;;3.10;2.90;;;;;;;21.70;51.05;100887.13;5077421;28;20111;-24
2022/07/04 00:15:44;;;;;;;2.80;2.60;;;;;;;21.65;50.57;100893.56;5071951;28;20032;-24
2022/07/04 00:18:09;;;;;;;4.18;2.85;;;;;;;21.61;50.83;100896.50;5076917;28;20067;-24
2022/07/04 00:20:35;;;;;;;3.22;3.03;;;;;;;21.58;51.14;100899.34;5080189;28;20474;-26
2022/07/04 00:23:00;;;;;;;3.63;3.20;;;;;;;21.51;51.00;100899.66;5076928;28;20486;-24
2022/07/04 00:25:25;;;;;;;2.97;2.67;;;;;;;21.50;50.98;100895.25;5069141;28;20024;-24
2022/07/04 00:27:51;;;;;;;3.08;2.65;;;;;;;21.46;51.59;100906.22;5058472;28;20048;-24
2022/07/04 00:30:16;;;;;;;3.20;3.00;;;;;;;21.39;51.08;100906.53;5079489;28;20104;-24
2022/07/04 00:32:41;;;;;;;2.78;2.60;;;;;;;21.38;51.35;100904.78;5072369;28;20020;-24
2022/07/04 00:35:08;;;;;;;3.58;2.80;;;;;;;21.33;51.55;100900.59;5082740;28;20106;-24
2022/07/04 00:37:33;;;;;;;3.08;2.78;;;;;;;21.29;51.50;100905.28;5080105;28;20024;-24
2022/07/04 00:39:58;;;;;;;3.55;2.80;;;;;;;21.25;51.34;100906.38;5070924;28;20029;-24
2022/07/04 00:42:24;;;;;;;3.30;3.00;;;;;;;21.24;51.58;100912.69;5056170;28;20052;-24
2022/07/04 00:44:49;;;;;;;3.25;3.00;;;;;;;21.22;51.37;100911.88;5075192;28;20028;-24
2022/07/04 00:47:14;;;;;;;3.28;2.97;;;;;;;21.19;51.34;100914.72;5072746;28;20119;-24
2022/07/04 00:49:40;;;;;;;2.60;2.50;;;;;;;21.12;51.40;100915.03;5074364;28;20052;-24
2022/07/04 00:52:06;;;;;;;2.80;2.60;;;;;;;21.09;51.51;100920.56;5056083;28;20111;-24
2022/07/04 00:54:32;;;;;;;4.18;2.85;;;;;;;21.06;51.19;100912.66;5074384;28;20035;-24
2022/07/04 00:56:58;;;;;;;3.38;3.00;;;;;;;21.01;51.56;100917.38;5075030;28;20055;-24
2022/07/04 00:59:23;;;;;;;3.35;3.05;;;;;;;20.98;51.39;100909.50;5075783;28;20024;-24
2022/07/04 01:01:50;;;;;;;3.13;2.97;;;;;;;20.96;51.42;100911.38;5078289;28;20039;-24
2022/07/04 01:04:15;;;;;;;3.05;2.85;;;;;;;20.92;51.51;100909.78;5073384;28;20493;-24
2022/07/04 01:06:42;;;;;;;2.92;2.60;;;;;;;20.87;51.66;100908.16;5072987;28;20032;-24
2022/07/04 01:09:08;;;;;;;3.35;3.00;;;;;;;20.87;51.50;100910.84;5076343;28;20372;-24
2022/07/04 01:11:33;;;;;;;3.83;2.88;;;;;;;20.79;51.84;100907.69;5075686;28;20065;-24
2022/07/04 01:13:58;;;;;;;2.97;2.67;;;;;;;20.76;51.65;100914.06;5066598;28;20028;-24
2022/07/04 01:16:25;;;;;;;3.58;3.08;;;;;;;20.70;51.54;100908.09;5070216;28;20029;-24
2022/07/04 01:18:52;;;;;;;3.05;2.65;;;;;;;20.66;51.81;100918.13;5054883;28;20023;-24
2022/07/04 01:21:18;;;;;;;3.15;2.95;;;;;;;20.64;51.53;100923.53;5071965;28;20033;-24
2022/07/04 01:23:43;;;;;;;4.55;2.85;;;;;;;20.64;52.18;100931.59;5074349;28;20071;-24
2022/07/04 01:26:09;;;;;;;2.80;2.60;;;;;;;20.57;51.83;100924.78;5074537;28;20057;-24
2022/07/04 01:28:34;;;;;;;3.10;2.90;;;;;;;20.54;52.15;100934.78;5054063;28;20107;-24
2022/07/04 01:31:00;;;;;;;3.05;2.85;;;;;;;20.52;51.99;100932.19;5057194;28;20036;-24
2022/07/04 01:33:25;;;;;;;2.75;2.55;;;;;;;20.48;52.13;100938.63;5074823;28;20031;-27
2022/07/04 01:35:51;;;;;;;3.08;2.80;;;;;;;20.40;52.13;100944.31;5077686;28;20395;-25
2022/07/04 01:38:16;;;;;;;3.15;2.40;;;;;;;20.38;52.05;100947.06;5072723;28;20396;-24
2022/07/04 01:40:42;;;;;;;3.15;2.90;;;;;;;20.37;52.05;100950.69;5063487;28;20483;-24
2022/07/04 01:43:07;;;;;;;3.35;2.70;;;;;;;20.31;52.24;100945.59;5070173;28;20376;-24
2022/07/04 01:45:37;;;;;;;3.30;3.10;;;;;;;20.26;52.33;100947.63;5073673;28;20099;-24
2022/07/04 01:48:12;;;;;;;2.75;2.55;;;;;;;20.22;52.13;100946.94;5078837;28;20020;-26
2022/07/04 01:50:38;;;;;;;2.65;2.45;;;;;;;20.16;52.35;100949.88;5077267;28;20038;-24
2022/07/04 01:53:03;;;;;;;5.15;2.83;;;;;;;20.07;52.61;100945.78;5072962;28;20602;-25
2022/07/04 01:55:29;;;;;;;2.72;2.63;;;;;;;20.04;52.75;100937.88;5073273;28;20061;-24
2022/07/04 01:57:55;;;;;;;2.88;2.67;;;;;;;19.99;52.62;100940.81;5076677;28;20078;-24
2022/07/04 02:03:04;;;;;;;3.95;2.97;;;;;;;19.93;53.44;100967.78;5078780;28;20451;-24
2022/07/04 02:05:30;;;;;;;2.50;2.30;;;;;;;19.86;53.78;100961.84;5076669;28;20020;-24
2022/07/04 02:07:55;;;;;;;3.90;2.92;;;;;;;19.81;53.46;100954.97;5075325;28;20123;-24
2022/07/04 02:10:21;;;;;;;2.72;2.53;;;;;;;19.77;53.33;100964.91;5067785;28;20121;-24
2022/07/04 02:13:01;;;;;;;2.70;2.50;;;;;;;19.71;53.35;100963.38;5070088;28;20028;-25
2022/07/04 02:15:29;;;;;;;2.58;2.35;;;;;;;19.69;53.50;100961.69;5076785;28;20514;-24
2022/07/04 02:17:54;;;;;;;3.38;2.53;;;;;;;19.69;53.50;100959.91;5070908;28;20037;-24
2022/07/04 02:20:20;;;;;;;2.83;2.50;;;;;;;19.61;53.75;100959.38;5071089;28;20031;-24
2022/07/04 02:22:45;;;;;;;2.50;2.30;;;;;;;19.51;53.17;100961.56;5070512;28;20126;-24
2022/07/04 02:25:13;;;;;;;2.20;2.10;;;;;;;19.47;53.34;100971.50;5073769;28;20042;-25
2022/07/04 02:27:39;;;;;;;2.63;2.42;;;;;;;19.41;53.49;100968.22;5056155;28;20099;-24
2022/07/04 02:30:05;;;;;;;2.63;2.28;;;;;;;19.41;53.14;100968.22;5073988;28;20612;-24
2022/07/04 02:32:31;;;;;;;2.40;2.13;;;;;;;19.32;53.34;100967.69;5050551;28;20024;-24
2022/07/04 02:34:56;;;;;;;3.42;2.20;;;;;;;19.30;53.53;100969.53;5075478;28;20035;-24
2022/07/04 02:37:22;;;;;;;2.33;2.10;;;;;;;19.22;53.22;100967.19;5078437;28;20030;-24
2022/07/04 02:39:47;;;;;;;2.28;2.08;;;;;;;19.23;53.40;100965.38;5072934;28;20111;-25
2022/07/04 02:42:12;;;;;;;2.15;2.05;;;;;;;19.19;53.31;100974.44;5070750;28;20086;-24
2022/07/04 02:44:38;;;;;;;2.47;2.28;;;;;;;19.15;53.36;100972.84;5058601;28;20070;-24
2022/07/04 02:47:03;;;;;;;1.77;1.67;;;;;;;19.09;53.49;100974.84;5069172;28;20032;-24
2022/07/04 02:49:28;;;;;;;2.15;2.00;;;;;;;19.01;53.19;100982.25;5074925;28;20028;-24
2022/07/04 02:51:54;;;;;;;2.10;2.00;;;;;;;18.95;53.24;100990.50;5083076;28;20024;-25
2022/07/04 02:54:19;;;;;;;3.30;1.70;;;;;;;18.96;53.29;100994.91;5071047;28;20038;-24
2022/07/04 02:56:45;;;;;;;2.60;2.20;;;;;;;18.89;53.31;101001.44;5068974;28;20031;-24
2022/07/04 02:59:10;;;;;;;2.17;2.08;;;;;;;18.87;53.34;101003.31;5075198;28;20020;-25
2022/07/04 03:01:35;;;;;;;1.70;1.60;;;;;;;18.84;53.37;101005.16;5070710;28;20468;-24
2022/07/04 03:04:02;;;;;;;1.80;1.70;;;;;;;18.81;53.69;101013.28;5074354;28;20024;-24
2022/07/04 03:06:27;;;;;;;2.10;1.85;;;;;;;18.73;53.53;101018.06;5075049;28;20028;-24
2022/07/04 03:08:53;;;;;;;3.03;2.10;;;;;;;18.67;53.95;101012.97;5069046;28;20126;-24
2022/07/04 03:11:19;;;;;;;2.63;2.30;;;;;;;18.57;53.97;101007.94;5050414;28;20039;-25
2022/07/04 03:13:45;;;;;;;2.90;1.88;;;;;;;18.58;53.80;101009.69;5069325;28;20454;-24
2022/07/04 03:16:11;;;;;;;2.17;1.90;;;;;;;18.55;53.94;101015.16;5065751;28;20024;-24
2022/07/04 03:18:37;;;;;;;2.20;2.05;;;;;;;18.57;54.30;101018.63;5067150;28;20028;-24
2022/07/04 03:21:04;;;;;;;2.40;2.20;;;;;;;18.53;54.09;101027.69;5072236;28;20059;-24
2022/07/04 03:23:30;;;;;;;2.08;1.85;;;;;;;18.44;54.12;101030.72;5054200;28;20036;-24
2022/07/04 03:25:55;;;;;;;2.35;1.83;;;;;;;18.43;53.95;101032.50;5070449;28;20021;-25
2022/07/04 03:28:21;;;;;;;3.25;2.25;;;;;;;18.42;53.87;101044.13;5074033;28;20025;-24
2022/07/04 03:30:46;;;;;;;1.85;1.75;;;;;;;18.40;54.41;101053.97;5068802;28;20396;-24
2022/07/04 03:33:11;;;;;;;1.60;1.50;;;;;;;18.39;54.01;101056.69;5076636;28;20166;-24
2022/07/04 03:35:37;;;;;;;3.15;2.20;;;;;;;18.37;54.41;101064.75;5077145;28;20036;-24
2022/07/04 03:38:02;;;;;;;1.90;1.73;;;;;;;18.36;54.37;101056.78;5070751;28;20082;-24
2022/07/04 03:40:30;;;;;;;2.50;2.20;;;;;;;18.32;54.11;101059.59;5053019;28;20048;-24
2022/07/04 03:42:56;;;;;;;2.83;1.88;;;;;;;18.33;54.29;101057.78;5074007;28;20024;-24
2022/07/04 03:45:22;;;;;;;2.13;1.70;;;;;;;18.30;54.26;101044.53;5067077;28;20035;-25
2022/07/04 03:47:47;;;;;;;2.05;1.65;;;;;;;18.27;54.56;101055.34;5069471;28;20017;-25
2022/07/04 03:50:13;;;;;;;2.03;1.65;;;;;;;18.27;54.24;101061.53;5069241;28;20468;-24
2022/07/04 03:52:38;;;;;;;1.80;1.70;;;;;;;18.29;54.52;101057.03;5069844;28;20462;-25
2022/07/04 03:55:04;;;;;;;2.67;2.15;;;;;;;18.24;54.42;101048.31;5068275;28;20036;-24
2022/07/04 03:57:29;;;;;;;3.53;1.80;;;;;;;18.21;54.51;101045.75;5069731;28;20503;-24
2022/07/04 03:59:54;;;;;;;2.05;1.95;;;;;;;18.23;54.51;101051.06;5073479;28;20029;-24
2022/07/04 04:02:20;;;;;;;2.60;1.95;;;;;;;18.20;54.64;101052.00;5069207;28;20394;-24
2022/07/04 04:07:29;;;;;;;1.95;1.70;;;;;;;18.19;54.88;101056.50;5067148;28;20027;-24
2022/07/04 04:09:54;;;;;;;1.60;1.50;;;;;;;18.16;54.77;101061.06;5068910;28;20403;-24
2022/07/04 04:12:20;;;;;;;2.05;1.58;;;;;;;18.12;54.54;101062.97;5068727;28;20487;-24
2022/07/04 04:14:45;;;;;;;1.65;1.55;;;;;;;18.09;54.56;101055.06;5050474;28;20492;-24
2022/07/04 04:17:10;;;;;;;2.25;2.05;;;;;;;18.07;54.40;101056.88;5065239;28;20119;-24
2022/07/04 04:19:36;;;;;;;1.60;1.50;;;;;;;18.08;54.60;101070.16;5049331;28;20028;-24
2022/07/04 04:22:01;;;;;;;1.90;1.42;;;;;;;18.10;54.75;101079.97;5067739;28;20028;-24
2022/07/04 04:24:26;;;;;;;2.15;1.67;;;;;;;18.18;54.86;101083.25;5068954;28;20502;-24
2022/07/04 04:26:52;;;;;;;2.95;1.98;;;;;;;18.18;54.85;101081.41;5069460;28;20472;-24
2022/07/04 04:29:17;;;;;;;1.95;1.75;;;;;;;18.26;54.61;101089.19;5050656;28;20143;-24
2022/07/04 04:31:42;;;;;;;2.90;1.58;;;;;;;18.29;54.90;101093.53;5065753;28;20107;-24
2022/07/04 04:34:07;;;;;;;2.83;1.88;;;;;;;18.33;54.91;101101.38;5067588;28;20020;-24
2022/07/04 04:36:33;;;;;;;3.45;2.05;;;;;;;18.28;54.67;101098.00;5073223;28;20285;-25
2022/07/04 04:38:58;;;;;;;1.85;1.45;;;;;;;18.26;54.87;101093.63;5072761;28;20078;-24
2022/07/04 04:41:24;;;;;;;1.50;1.40;;;;;;;18.27;54.75;101095.41;5071862;28;20115;-25
2022/07/04 04:43:49;;;;;;;1.52;1.42;;;;;;;18.23;54.99;101086.59;5078225;28;20499;-24
2022/07/04 04:46:14;;;;;;;1.73;1.45;;;;;;;18.25;55.00;101095.44;5072744;28;20502;-24
2022/07/04 04:48:40;;;;;;;2.20;1.58;;;;;;;18.28;55.37;101091.78;5072444;28;20016;-24
2022/07/04 04:51:05;;;;;;;2.13;1.88;;;;;;;18.28;55.02;101089.97;5071055;28;20058;-24
2022/07/04 04:53:30;;;;;;;2.08;1.60;;;;;;;18.28;55.09;101087.31;5071806;28;20064;-24
2022/07/04 04:55:56;;;;;;;1.80;1.70;;;;;;;18.29;54.91;101086.41;5073053;28;20050;-24
2022/07/04 04:58:22;;;;;;;1.60;1.48;;;;;;;18.37;55.26;101085.28;5070917;28;20119;-24
2022/07/04 05:00:49;;;;;;;1.80;1.60;;;;;;;18.39;55.46;101086.06;5072177;28;20020;-24
2022/07/04 05:03:15;;;;;;;2.42;1.60;;;;;;;18.41;54.98;101097.59;5052066;28;20178;-24
2022/07/04 05:05:41;;;;;;;1.35;1.30;;;;;;;18.44;54.80;101097.47;5051601;28;20192;-25
2022/07/04 05:08:06;;;;;;;1.50;1.40;;;;;;;18.47;55.49;101094.66;5071356;28;20491;-24
2022/07/04 05:10:31;;;;;;;1.50;1.40;;;;;;;18.52;54.76;101097.19;5071032;28;20035;-24
2022/07/04 05:12:57;;;;;;;1.63;1.52;;;;;;;18.56;55.56;101099.69;5070528;28;20039;-24
2022/07/04 05:15:22;;;;;;;2.47;1.60;;;;;;;18.62;55.26;101108.41;5070074;28;20064;-24
2022/07/04 05:17:47;;;;;;;1.55;1.45;;;;;;;18.65;55.36;101105.63;5071206;28;20025;-25
2022/07/04 05:20:13;;;;;;;1.88;1.45;;;;;;;18.69;55.34;101109.94;5070188;28;20032;-24
2022/07/04 05:22:38;;;;;;;2.22;1.48;;;;;;;18.76;55.41;101107.91;5071598;28;20028;-24
2022/07/04 05:25:04;;;;;;;3.72;1.88;;;;;;;18.79;55.18;101119.38;5070439;28;20538;-24
2022/07/04 05:27:30;;;;;;;1.50;1.23;;;;;;;18.83;55.50;101126.34;5071288;28;20392;-25
2022/07/04 05:29:56;;;;;;;2.88;1.30;;;;;;;18.89;55.90;101133.25;5070509;28;20027;-24
2022/07/04 05:32:22;;;;;;;1.63;1.45;;;;;;;18.93;55.46;101131.31;5071243;28;20020;-24
2022/07/04 05:34:47;;;;;;;1.95;1.75;;;;;;;18.97;55.83;101133.84;5071695;28;20131;-25
2022/07/04 05:37:12;;;;;;;1.42;1.33;;;;;;;19.03;55.85;101129.19;5053749;28;20167;-25
2022/07/04 05:39:38;;;;;;;1.98;1.42;;;;;;;19.07;55.70;101139.75;5070759;28;20024;-24
2022/07/04 05:42:03;;;;;;;1.35;1.25;;;;;;;19.11;55.69;101151.22;5071440;28;20336;-24
2022/07/04 05:44:29;;;;;;;1.92;1.30;;;;;;;19.17;55.10;101142.09;5071680;28;20154;-24
2022/07/04 05:46:54;;;;;;;1.58;1.48;;;;;;;19.20;55.18;101139.28;5068891;28;20058;-24
2022/07/04 05:49:19;;;;;;;2.58;1.70;;;;;;;19.22;55.55;101140.97;5068371;28;20033;-24
2022/07/04 05:51:45;;;;;;;1.95;1.30;;;;;;;19.28;55.48;101150.56;5071929;28;20468;-24
2022/07/04 05:54:10;;;;;;;1.95;1.15;;;;;;;19.32;55.26;101146.84;5071431;28;20476;-24
2022/07/04 05:56:37;;;;;;;2.20;1.48;;;;;;;19.39;55.40;101149.25;5071582;28;20077;-24
2022/07/04 05:59:02;;;;;;;1.50;1.40;;;;;;;19.43;55.30;101146.41;5071399;28;20040;-24
2022/07/04 06:01:28;;;;;;;1.52;1.33;;;;;;;19.49;55.20;101151.53;5070433;28;20020;-24
2022/07/04 06:03:53;;;;;;;1.77;1.23;;;;;;;19.56;55.03;101154.84;5071099;28;20064;-24
2022/07/04 06:06:18;;;;;;;1.27;1.17;;;;;;;19.63;55.33;101157.28;5069502;28;20345;-24
2022/07/04 06:08:44;;;;;;;1.35;1.25;;;;;;;19.67;54.79;101154.41;5053366;28;20036;-24
2022/07/04 06:11:09;;;;;;;1.27;1.17;;;;;;;19.75;54.71;101164.81;5070913;28;20028;-24
2022/07/04 06:13:34;;;;;;;1.70;1.35;;;;;;;19.82;54.86;101146.69;5069617;28;20052;-24
2022/07/04 06:16:00;;;;;;;2.08;1.02;;;;;;;19.88;54.62;101152.66;5068946;28;20028;-24
2022/07/04 06:18:27;;;;;;;2.67;1.30;;;;;;;19.95;54.67;101152.41;5070220;28;20077;-24
2022/07/04 06:20:52;;;;;;;1.33;1.23;;;;;;;20.01;54.42;101149.53;5068638;28;20089;-24
2022/07/04 06:23:17;;;;;;;2.40;1.58;;;;;;;20.08;54.34;101153.66;5035792;28;20024;-24
2022/07/04 06:25:43;;;;;;;1.10;1.00;;;;;;;20.16;54.41;101155.16;5072102;28;20031;-24
2022/07/04 06:28:08;;;;;;;2.50;1.27;;;;;;;20.22;54.16;101155.81;5052645;28;20024;-24
2022/07/04 06:30:33;;;;;;;1.67;1.10;;;;;;;20.29;54.59;101160.88;5070026;28;20177;-24
2022/07/04 06:32:59;;;;;;;1.15;1.05;;;;;;;20.36;53.96;101163.25;5070758;28;20025;-24
2022/07/04 06:35:49;;;;;;;1.70;1.20;;;;;;;20.44;54.27;101165.56;5052675;28;20021;-25
2022/07/04 06:38:25;;;;;;;1.98;1.20;;;;;;;20.51;53.81;101167.06;5068759;28;20182;-24
2022/07/04 06:40:53;;;;;;;2.03;1.73;;;;;;;20.58;53.73;101167.66;5069676;28;20107;-24
2022/07/04 06:43:19;;;;;;;3.30;1.05;;;;;;;20.63;53.67;101171.03;5068399;28;20063;-24
2022/07/04 06:45:44;;;;;;;2.72;1.42;;;;;;;20.68;53.80;101178.88;5070796;28;20060;-24
2022/07/04 06:48:09;;;;;;;1.90;1.40;;;;;;;20.73;53.59;101173.28;5069881;28;20028;-24
2022/07/04 06:50:35;;;;;;;1.33;1.23;;;;;;;20.81;53.46;101176.50;5070779;28;20025;-24
2022/07/04 06:53:04;;;;;;;1.65;1.30;;;;;;;20.86;53.32;101182.53;5069374;28;20043;-24
2022/07/04 06:55:30;;;;;;;1.15;1.10;;;;;;;20.92;53.16;101180.53;5051525;28;20036;-24
2022/07/04 06:57:55;;;;;;;1.40;1.27;;;;;;;20.98;53.11;101180.28;5069366;28;20025;-24
2022/07/04 07:00:21;;;;;;;3.25;1.27;;;;;;;21.03;52.91;101188.97;5035717;28;20191;-24
2022/07/04 07:02:46;;;;;;;1.35;0.98;;;;;;;21.10;53.15;101192.25;5068824;28;20448;-24
2022/07/04 07:05:11;;;;;;;1.60;0.80;;;;;;;21.15;52.75;101193.78;5068082;28;20028;-24
2022/07/04 07:07:37;;;;;;;1.13;1.02;;;;;;;21.21;52.47;101186.41;5073103;28;20094;-24
2022/07/04 07:10:02;;;;;;;0.95;0.80;;;;;;;21.25;52.57;101193.38;5070667;28;20024;-26
2022/07/04 07:12:28;;;;;;;1.80;0.98;;;;;;;21.28;52.38;101187.88;5066998;28;20016;-24
2022/07/04 07:14:54;;;;;;;1.33;1.08;;;;;;;21.31;52.44;101193.09;5050927;28;20032;-24
2022/07/04 07:17:20;;;;;;;0.80;0.80;;;;;;;21.34;52.14;101192.06;5070245;28;20054;-24
2022/07/04 07:19:45;;;;;;;1.13;1.02;;;;;;;21.36;51.99;101195.53;5070259;28;20020;-24
2022/07/04 07:22:11;;;;;;;1.40;1.30;;;;;;;21.38;52.20;101183.78;5069327;28;20020;-24
2022/07/04 07:24:37;;;;;;;1.25;1.15;;;;;;;21.40;52.03;101187.28;5070925;28;20155;-24
2022/07/04 07:27:03;;;;;;;1.50;1.23;;;;;;;21.40;52.12;101186.41;5069903;28;20096;-24
2022/07/04 07:29:28;;;;;;;1.67;1.00;;;;;;;21.44;52.08;101181.78;5052937;28;20127;-25
2022/07/04 07:31:53;;;;;;;1.20;1.10;;;;;;;21.45;51.68;101183.50;5051164;28;20029;-24
2022/07/04 07:34:19;;;;;;;1.27;1.10;;;;;;;21.46;51.78;101182.56;5051863;28;20062;-24
2022/07/04 07:36:44;;;;;;;1.48;1.10;;;;;;;21.48;51.76;101181.53;5069730;28;20108;-24
2022/07/04 07:39:09;;;;;;;0.95;0.95;;;;;;;21.50;51.73;101181.47;5051208;28;20036;-24
2022/07/04 07:41:35;;;;;;;1.73;1.10;;;;;;;21.52;51.93;101185.84;5069683;28;20424;-24
2022/07/04 07:44:00;;;;;;;2.63;1.13;;;;;;;21.53;51.61;101186.69;5068708;28;20467;-24
2022/07/04 07:46:26;;;;;;;1.33;1.20;;;;;;;21.55;51.68;101192.88;5069735;28;20058;-24
2022/07/04 07:48:51;;;;;;;1.45;0.98;;;;;;;21.56;51.73;101185.69;5070212;28;20066;-24
2022/07/04 07:51:16;;;;;;;0.82;0.82;;;;;;;21.58;52.01;101195.44;5068594;28;20496;-24
2022/07/04 07:53:42;;;;;;;1.33;1.23;;;;;;;21.60;51.91;101182.78;5068094;28;20516;-24
2022/07/04 07:56:08;;;;;;;1.40;1.30;;;;;;;21.63;51.65;101187.13;5075894;28;20555;-24
2022/07/04 07:58:34;;;;;;;0.88;0.88;;;;;;;21.67;51.83;101194.09;5068722;28;20024;-24
2022/07/04 08:01:01;;;;;;;0.90;0.90;;;;;;;21.73;51.56;101182.19;5069833;28;20445;-24
2022/07/04 08:06:11;;;;;;;1.75;1.10;;;;;;;21.83;51.37;101179.97;5053416;28;20040;-24
2022/07/04 08:08:37;;;;;;;1.77;1.15;;;;;;;21.90;51.36;101182.28;5068958;28;20036;-24
2022/07/04 08:11:03;;;;;;;0.95;0.90;;;;;;;21.97;51.34;101171.25;5071584;28;20142;-24
2022/07/04 08:13:29;;;;;;;1.80;1.30;;;;;;;22.04;51.49;101175.38;5072274;28;20024;-24
2022/07/04 08:15:54;;;;;;;1.08;0.98;;;;;;;22.09;51.47;101167.94;5073548;28;20029;-24
2022/07/04 08:18:19;;;;;;;1.45;1.20;;;;;;;22.18;50.99;101172.84;5075071;28;20028;-24
2022/07/04 08:20:45;;;;;;;1.88;1.20;;;;;;;22.23;50.58;101169.06;5078368;28;20028;-24
2022/07/04 08:23:10;;;;;;;1.00;0.90;;;;;;;22.29;50.85;101158.00;5073638;28;20058;-24
2022/07/04 08:25:36;;;;;;;2.45;1.10;;;;;;;22.35;50.22;101157.69;5072885;28;20105;-24
2022/07/04 08:28:01;;;;;;;1.13;0.88;;;;;;;22.41;50.49;101157.38;5073690;28;20024;-24
2022/07/04 08:30:27;;;;;;;1.13;1.13;;;;;;;22.49;50.25;101158.78;5070281;28;20453;-24
2022/07/04 08:32:52;;;;;;;1.15;1.05;;;;;;;22.54;50.09;101154.91;5073036;28;20035;-24
2022/07/04 08:35:17;;;;;;;1.45;1.10;;;;;;;22.60;49.92;101160.97;5038270;28;20099;-24
2022/07/04 08:37:43;;;;;;;2.55;1.10;;;;;;;22.68;50.00;101148.84;5074342;28;20115;-24
2022/07/04 08:40:09;;;;;;;1.20;1.10;;;;;;;22.75;50.05;101152.09;5072627;28;20064;-24
2022/07/04 08:42:38;;;;;;;1.00;1.00;;;;;;;22.82;49.22;101152.63;5055185;28;20029;-24
2022/07/04 08:45:05;;;;;;;0.93;0.87;;;;;;;22.91;49.14;101146.75;5056097;28;20032;-24
2022/07/04 08:47:33;;;;;;;1.45;1.13;;;;;;;22.98;48.83;101143.72;5057534;28;20039;-24
2022/07/04 08:50:11;;;;;;;1.25;1.10;;;;;;;23.02;48.50;101148.00;5072151;28;20488;-24
2022/07/04 08:52:38;;;;;;;1.52;1.00;;;;;;;23.05;48.75;101150.53;5053398;28;20028;-25
2022/07/04 09:00:35;;;;;;;1.17;1.10;;;;;;;23.28;48.51;101153.78;5073213;28;20166;-24
2022/07/04 09:03:02;;;;;;;1.05;0.82;;;;;;;23.32;48.22;101150.81;5072005;28;20046;-24
2022/07/04 09:05:28;;;;;;;1.02;0.95;;;;;;;23.40;48.27;101161.19;5072277;28;20031;-24
2022/07/04 09:07:54;;;;;;;1.98;1.20;;;;;;;23.47;47.97;101155.47;5075843;28;20024;-24
2022/07/04 09:10:21;;;;;;;1.05;1.00;;;;;;;23.55;48.29;101155.91;5071593;28;20036;-24
2022/07/04 09:12:46;;;;;;;1.40;1.30;;;;;;;23.69;48.36;101155.97;5075526;28;20029;-24
2022/07/04 09:15:11;;;;;;;1.50;1.10;;;;;;;23.84;48.22;101158.72;5072263;28;20033;-24
2022/07/04 09:17:37;;;;;;;1.80;1.27;;;;;;;23.93;48.17;101150.13;5072408;28;20492;-24
2022/07/04 09:20:17;;;;;;;2.72;1.30;;;;;;;24.02;48.01;101150.53;5071807;28;20024;-24
2022/07/04 09:22:43;;;;;;;1.55;1.20;;;;;;;24.11;47.54;101155.41;5036056;28;20074;-24
2022/07/04 09:25:12;;;;;;;1.40;1.30;;;;;;;24.20;47.39;101160.28;5054413;28;20120;-25
2022/07/04 09:27:44;;;;;;;1.40;1.30;;;;;;;24.35;47.33;101152.22;5073456;28;20017;-24
2022/07/04 09:30:20;;;;;;;2.42;1.27;;;;;;;24.51;47.60;101154.00;5071382;28;20107;-24
2022/07/04 09:32:50;;;;;;;1.88;0.88;;;;;;;24.60;46.83;101148.03;5072248;28;20036;-24
2022/07/04 09:35:21;;;;;;;1.65;1.40;;;;;;;24.69;46.85;101144.78;5071741;28;20024;-24
2022/07/04 09:37:48;;;;;;;1.30;1.20;;;;;;;24.80;46.69;101145.94;5053469;28;20056;-24
2022/07/04 09:41:24;;;;;;;1.70;1.27;;;;;;;24.92;46.48;101138.94;5070114;28;20039;-24
2022/07/04 09:43:24;;;;;;;1.30;1.20;;;;;;;25.07;46.25;101145.22;5071503;28;20045;-24
2022/07/04 09:45:57;;;;;;;1.10;0.90;;;;;;;25.20;46.29;101146.16;5071162;28;20033;-24
2022/07/04 09:48:23;;;;;;;1.55;1.20;;;;;;;25.32;45.99;101140.94;5071305;28;20032;-24
2022/07/04 09:50:49;;;;;;;1.10;1.00;;;;;;;25.40;45.88;101132.34;5071490;28;20021;-24
2022/07/04 09:53:14;;;;;;;2.38;0.85;;;;;;;25.49;45.96;101138.03;5070187;28;20055;-24
2022/07/04 09:55:39;;;;;;;1.85;1.30;;;;;;;25.67;45.73;101131.53;5054068;28;20036;-24
2022/07/04 09:58:10;;;;;;;1.45;1.35;;;;;;;25.82;46.03;101121.53;5069730;28;20078;-24
2022/07/04 10:00:40;;;;;;;1.42;1.02;;;;;;;25.88;45.45;101121.97;5069808;28;20044;-24
2022/07/04 10:03:20;;;;;;;1.20;1.10;;;;;;;26.03;45.75;101126.44;5070822;28;20119;-24
2022/07/04 10:05:47;;;;;;;1.42;1.13;;;;;;;26.10;44.43;101122.38;5070570;28;20040;-24
2022/07/04 10:08:12;;;;;;;1.35;1.17;;;;;;;26.16;44.25;101127.38;5071492;28;20025;-24
2022/07/04 10:10:39;;;;;;;1.95;1.45;;;;;;;26.22;44.51;101121.53;5052691;28;20086;-24
2022/07/04 10:13:12;;;;;;;1.35;1.17;;;;;;;26.29;44.07;101119.31;5070811;28;20050;-24
2022/07/04 10:15:42;;;;;;;1.50;1.40;;;;;;;26.37;43.55;101116.06;5053082;28;20021;-26
2022/07/04 10:18:09;;;;;;;1.38;1.27;;;;;;;26.48;44.31;101110.75;5070133;28;20040;-24
2022/07/04 10:20:35;;;;;;;2.65;1.40;;;;;;;26.61;43.80;101107.22;5070555;28;20035;-24
2022/07/04 10:23:01;;;;;;;1.95;1.33;;;;;;;26.65;43.51;101112.28;5071130;28;20403;-24
2022/07/04 10:25:27;;;;;;;1.17;1.13;;;;;;;26.76;44.24;101116.94;5071021;28;20376;-24
2022/07/04 10:27:52;;;;;;;2.58;1.40;;;;;;;26.94;44.31;101108.47;5070914;28;20086;-24
2022/07/04 10:30:26;;;;;;;1.77;1.30;;;;;;;26.95;42.97;101110.22;5069582;28;20025;-24
2022/07/04 10:32:53;;;;;;;1.88;1.23;;;;;;;26.96;42.94;101098.44;5070665;28;20024;-24
2022/07/04 10:35:54;;;;;;;1.23;1.20;;;;;;;27.06;42.66;101105.88;5070826;28;20361;-24
2022/07/04 10:38:23;;;;;;;;;;;;;;;27.11;42.61;101103.72;5072778;28;20108;-24
2022/07/04 10:40:49;;;;;;;1.73;1.10;;;;;;;27.13;42.08;101107.16;5069892;28;19920;-25
2022/07/04 10:43:42;;;;;;;1.52;1.42;;;;;;;27.15;42.07;101099.81;5068341;28;20111;-24
2022/07/04 10:46:14;;;;;;;1.73;1.52;;;;;;;27.18;42.23;101091.47;5071215;28;20132;-24
2022/07/04 10:49:04;;;;;;;1.52;1.38;;;;;;;27.27;42.37;101088.06;5071114;28;20264;-24
2022/07/04 10:51:39;;;;;;;1.35;1.25;;;;;;;27.31;42.19;101087.84;5069021;28;20548;-24
2022/07/04 10:54:09;;;;;;;1.45;1.30;;;;;;;27.39;42.31;101083.59;5071273;28;20052;-24
2022/07/04 10:56:38;;;;;;;2.63;1.25;;;;;;;27.42;41.84;101085.22;5069789;28;20016;-24
2022/07/04 10:59:09;;;;;;;1.30;1.20;;;;;;;27.47;41.99;101093.84;5053489;28;20021;-24
2022/07/04 11:01:35;;;;;;;1.10;1.10;;;;;;;27.49;41.79;101080.19;5068548;28;20024;-24
2022/07/04 11:04:00;;;;;;;2.15;1.40;;;;;;;27.50;41.63;101088.22;5070137;28;20039;-25
2022/07/04 11:06:38;;;;;;;1.60;1.20;;;;;;;27.53;41.91;101093.41;5035433;28;20433;-24
2022/07/04 11:09:12;;;;;;;1.52;1.40;;;;;;;27.54;41.45;101097.81;5068823;28;20044;-24
2022/07/04 11:12:06;;;;;;;1.98;1.50;;;;;;;27.53;41.09;101087.97;5063391;28;20028;-25
2022/07/04 11:14:40;;;;;;;3.53;1.50;;;;;;;27.54;41.14;101089.69;5070704;28;20024;-24
2022/07/04 11:17:18;;;;;;;1.58;1.40;;;;;;;27.56;41.04;101086.88;5068000;28;20093;-24
2022/07/04 11:19:44;;;;;;;1.55;1.45;;;;;;;27.59;40.92;101085.78;5069803;28;20033;-24
2022/07/04 11:22:10;;;;;;;1.58;1.30;;;;;;;27.60;40.84;101087.50;5070246;28;20289;-24
2022/07/04 11:24:38;;;;;;;1.38;1.23;;;;;;;27.66;41.07;101077.13;5070548;28;20495;-24
2022/07/04 11:27:03;;;;;;;1.30;1.20;;;;;;;27.75;41.09;101082.81;5068374;28;20052;-24
2022/07/04 11:29:29;;;;;;;1.30;1.20;;;;;;;27.79;40.76;101078.88;5068352;28;20274;-25
2022/07/04 11:31:55;;;;;;;1.40;1.30;;;;;;;27.85;40.67;101088.41;5050268;28;20435;-24
2022/07/04 11:34:21;;;;;;;1.88;1.77;;;;;;;27.83;40.27;101076.78;5066836;28;20028;-24
2022/07/04 11:36:48;;;;;;;3.78;1.27;;;;;;;27.85;39.95;101080.25;5069966;28;20021;-24